createdAt,value
2022-09-21T00:01:23.790Z,9.31
2022-09-21T00:03:59.787Z,9.27
2022-09-21T00:06:30.690Z,9.25
2022-09-21T00:08:57.715Z,9.19
2022-09-21T00:11:28.928Z,9.18
2022-09-21T00:14:07.123Z,9.15
2022-09-21T00:16:34.956Z,9.13
2022-09-21T00:19:02.468Z,9.11
2022-09-21T00:21:29.580Z,9.08
2022-09-21T00:23:57.054Z,9.06
2022-09-21T00:26:27.371Z,9.02
2022-09-21T00:29:00.497Z,8.98
2022-09-21T00:31:31.015Z,8.97
2022-09-21T00:34:00.029Z,8.94
2022-09-21T00:36:28.106Z,8.92
2022-09-21T00:39:00.874Z,8.90
2022-09-21T00:41:30.845Z,8.89
2022-09-21T00:44:21.947Z,8.84
2022-09-21T00:46:51.262Z,8.78
2022-09-21T00:49:20.227Z,8.77
2022-09-21T00:51:48.891Z,8.73
2022-09-21T00:54:32.610Z,8.67
2022-09-21T00:57:02.805Z,8.66
2022-09-21T00:59:34.041Z,8.62
2022-09-21T01:02:01.414Z,8.60
2022-09-21T01:04:29.214Z,8.57
2022-09-21T01:07:00.939Z,8.53
2022-09-21T01:09:28.653Z,8.51
2022-09-21T01:12:36.571Z,8.44
2022-09-21T01:15:38.294Z,8.41
2022-09-21T01:18:29.319Z,8.39
2022-09-21T01:21:23.397Z,8.34
2022-09-21T01:24:21.160Z,8.31
2022-09-21T01:27:28.009Z,8.27
2022-09-21T01:30:15.314Z,8.26
2022-09-21T01:33:19.673Z,8.25
2022-09-21T01:36:01.778Z,8.25
2022-09-21T01:38:35.671Z,8.24
2022-09-21T01:41:07.054Z,8.23
2022-09-21T01:43:40.251Z,8.20
2022-09-21T01:46:16.313Z,8.20
2022-09-21T01:48:50.103Z,8.18
2022-09-21T01:51:20.305Z,8.16
2022-09-21T01:53:54.013Z,8.13
2022-09-21T01:56:28.163Z,8.10
2022-09-21T01:59:28.038Z,8.06
2022-09-21T02:02:04.917Z,8.03
2022-09-21T02:04:35.000Z,8.03
2022-09-21T02:07:02.467Z,8.00
2022-09-21T02:09:29.601Z,7.98
2022-09-21T02:11:58.336Z,7.95
2022-09-21T02:14:26.212Z,7.91
2022-09-21T02:17:16.209Z,7.87
2022-09-21T02:20:03.048Z,7.83
2022-09-21T02:22:49.335Z,7.79
2022-09-21T02:25:29.710Z,7.77
2022-09-21T02:28:06.819Z,7.73
2022-09-21T02:30:35.858Z,7.71
2022-09-21T02:33:19.685Z,7.66
2022-09-21T02:36:30.599Z,7.61
2022-09-21T02:39:15.781Z,7.59
2022-09-21T02:41:54.555Z,7.55
2022-09-21T02:44:33.058Z,7.55
2022-09-21T02:47:11.490Z,7.51
2022-09-21T02:49:48.695Z,7.46
2022-09-21T02:52:18.149Z,7.45
2022-09-21T02:54:50.542Z,7.43
2022-09-21T02:57:21.279Z,7.40
2022-09-21T02:59:49.320Z,7.37
2022-09-21T03:02:16.253Z,7.35
2022-09-21T03:04:49.961Z,7.32
2022-09-21T03:07:17.298Z,7.31
2022-09-21T03:09:44.518Z,7.28
2022-09-21T03:12:11.610Z,7.29
2022-09-21T03:14:39.046Z,7.30
2022-09-21T03:17:06.009Z,7.31
2022-09-21T03:19:32.945Z,7.32
2022-09-21T03:22:00.080Z,7.32
2022-09-21T03:24:45.355Z,7.32
2022-09-21T03:27:19.021Z,7.29
2022-09-21T03:29:46.526Z,7.29
2022-09-21T03:32:14.330Z,7.26
2022-09-21T03:34:41.661Z,7.26
2022-09-21T03:37:09.891Z,7.24
2022-09-21T03:39:36.797Z,7.20
2022-09-21T03:42:05.082Z,7.19
2022-09-21T03:44:32.123Z,7.18
2022-09-21T03:54:05.409Z,7.08
2022-09-21T03:56:31.662Z,7.08
2022-09-21T03:58:58.002Z,7.06
2022-09-21T04:01:24.316Z,7.04
2022-09-21T04:03:51.320Z,7.03
2022-09-21T04:06:18.372Z,7.04
2022-09-21T04:08:45.338Z,7.01
2022-09-21T04:11:15.115Z,6.98
2022-09-21T04:13:42.530Z,6.97
2022-09-21T04:16:11.350Z,6.95
2022-09-21T04:18:38.639Z,6.93
2022-09-21T04:21:06.142Z,6.92
2022-09-21T04:23:33.412Z,6.91
2022-09-21T04:26:00.384Z,6.90
2022-09-21T04:28:27.274Z,6.91
2022-09-21T04:30:55.598Z,6.91
2022-09-21T04:33:23.810Z,6.92
2022-09-21T04:35:56.947Z,6.90
2022-09-21T04:38:23.903Z,6.94
2022-09-21T04:40:57.853Z,6.93
2022-09-21T04:43:25.488Z,6.96
2022-09-21T04:45:52.480Z,6.98
2022-09-21T04:48:19.481Z,6.99
2022-09-21T04:50:51.010Z,7.01
2022-09-21T04:53:17.938Z,7.04
2022-09-21T04:55:46.263Z,7.06
2022-09-21T04:58:13.305Z,7.05
2022-09-21T05:00:40.306Z,7.06
2022-09-21T05:03:07.214Z,7.05
2022-09-21T05:05:34.165Z,7.05
2022-09-21T05:08:01.371Z,7.02
2022-09-21T05:10:28.306Z,7.02
2022-09-21T05:12:55.209Z,7.01
2022-09-21T05:15:22.229Z,6.99
2022-09-21T05:17:49.151Z,6.98
2022-09-21T05:20:16.184Z,6.95
2022-09-21T05:22:43.118Z,6.94
2022-09-21T05:25:10.350Z,6.92
2022-09-21T05:27:37.357Z,6.89
2022-09-21T05:30:06.252Z,6.88
2022-09-21T05:33:01.226Z,6.82
2022-09-21T05:36:04.857Z,6.80
2022-09-21T05:38:32.332Z,6.80
2022-09-21T05:41:00.857Z,6.78
2022-09-21T05:43:28.166Z,6.77
2022-09-21T05:46:13.115Z,6.74
2022-09-21T05:48:45.579Z,6.74
2022-09-21T05:51:53.321Z,6.71
2022-09-21T05:54:48.703Z,6.72
2022-09-21T05:57:30.786Z,6.73
2022-09-21T06:00:21.113Z,6.72
2022-09-21T06:03:17.793Z,6.73
2022-09-21T06:05:45.263Z,6.75
2022-09-21T06:08:12.211Z,6.75
2022-09-21T06:10:39.180Z,6.75
2022-09-21T06:13:06.077Z,6.76
2022-09-21T06:15:38.248Z,6.78
2022-09-21T06:18:06.878Z,6.77
2022-09-21T06:20:34.149Z,6.77
2022-09-21T06:23:07.743Z,6.77
2022-09-21T06:25:35.203Z,6.77
2022-09-21T06:28:11.464Z,6.77
2022-09-21T06:30:40.767Z,6.79
2022-09-21T06:33:08.373Z,6.82
2022-09-21T06:35:36.373Z,6.87
2022-09-21T06:38:08.117Z,6.90
2022-09-21T06:40:37.149Z,6.97
2022-09-21T06:43:05.218Z,7.02
2022-09-21T06:45:33.411Z,7.06
2022-09-21T06:48:00.507Z,7.13
2022-09-21T06:50:27.545Z,7.19
2022-09-21T06:52:54.693Z,7.26
2022-09-21T06:55:21.697Z,7.32
2022-09-21T06:57:50.955Z,7.40
2022-09-21T07:00:18.155Z,7.47
2022-09-21T07:02:45.672Z,7.55
2022-09-21T07:05:13.250Z,7.62
2022-09-21T07:07:40.372Z,7.70
2022-09-21T07:10:13.237Z,7.77
2022-09-21T07:12:43.612Z,7.85
2022-09-21T07:15:10.915Z,7.93
2022-09-21T07:17:39.748Z,8.01
2022-09-21T07:20:08.215Z,8.09
2022-09-21T07:22:36.096Z,8.15
2022-09-21T07:25:05.478Z,8.24
2022-09-21T07:27:33.736Z,8.32
2022-09-21T07:30:00.659Z,8.40
2022-09-21T07:32:27.611Z,8.48
2022-09-21T07:34:57.042Z,8.57
2022-09-21T07:37:25.261Z,8.64
2022-09-21T07:39:53.095Z,8.73
2022-09-21T07:42:22.573Z,8.82
2022-09-21T07:44:50.978Z,8.92
2022-09-21T07:47:18.169Z,9.00
2022-09-21T07:49:46.884Z,9.10
2022-09-21T07:52:15.508Z,9.18
2022-09-21T07:54:42.500Z,9.28
2022-09-21T07:57:27.773Z,9.38
2022-09-21T07:59:58.093Z,9.48
2022-09-21T08:02:25.097Z,9.58
2022-09-21T08:04:52.146Z,9.69
2022-09-21T08:07:19.149Z,9.79
2022-09-21T08:09:49.258Z,9.91
2022-09-21T08:12:18.578Z,10.03
2022-09-21T08:14:45.924Z,10.18
2022-09-21T08:17:13.590Z,10.33
2022-09-21T08:19:40.679Z,10.46
2022-09-21T08:22:07.732Z,10.62
2022-09-21T08:24:35.717Z,10.75
2022-09-21T08:27:02.691Z,10.88
2022-09-21T08:29:30.241Z,10.99
2022-09-21T08:31:57.951Z,11.11
2022-09-21T08:34:25.008Z,11.24
2022-09-21T08:36:55.508Z,11.36
2022-09-21T08:39:23.766Z,11.51
2022-09-21T08:42:35.903Z,11.63
2022-09-21T08:45:11.547Z,11.73
2022-09-21T08:47:50.849Z,11.85
2022-09-21T08:50:48.290Z,11.99
2022-09-21T08:53:36.481Z,12.08
2022-09-21T08:56:03.854Z,12.20
2022-09-21T08:58:32.749Z,12.30
2022-09-21T09:01:20.024Z,12.42
2022-09-21T09:03:49.722Z,12.49
2022-09-21T09:06:49.011Z,12.58
2022-09-21T09:10:14.703Z,12.71
2022-09-21T09:13:10.879Z,12.83
2022-09-21T09:15:49.091Z,12.91
2022-09-21T09:18:53.940Z,13.04
2022-09-21T09:21:39.396Z,13.13
2022-09-21T09:24:14.873Z,13.23
2022-09-21T09:27:15.020Z,13.34
2022-09-21T09:30:05.163Z,13.46
2022-09-21T09:32:44.490Z,13.54
2022-09-21T09:35:43.893Z,13.61
2022-09-21T09:38:51.532Z,13.72
2022-09-21T09:41:38.659Z,13.82
2022-09-21T09:44:39.632Z,13.92
2022-09-21T09:47:47.622Z,14.02
2022-09-21T09:50:38.791Z,14.08
2022-09-21T09:53:17.261Z,14.13
2022-09-21T09:55:48.858Z,14.20
2022-09-21T09:58:30.897Z,14.30
2022-09-21T10:00:59.044Z,14.32
2022-09-21T10:03:28.238Z,14.40
2022-09-21T10:05:55.278Z,14.47
2022-09-21T10:08:44.709Z,14.57
2022-09-21T10:11:14.978Z,14.61
2022-09-21T10:13:45.307Z,14.69
2022-09-21T10:16:30.570Z,14.81
2022-09-21T10:19:01.662Z,14.85
2022-09-21T10:21:44.504Z,14.97
2022-09-21T10:24:23.839Z,15.06
2022-09-21T10:26:56.715Z,15.14
2022-09-21T10:29:23.531Z,15.15
2022-09-21T10:31:56.207Z,15.22
2022-09-21T10:34:24.775Z,15.33
2022-09-21T10:36:55.987Z,15.39
2022-09-21T10:39:34.143Z,15.53
2022-09-21T10:42:15.848Z,15.61
2022-09-21T10:44:50.625Z,15.64
2022-09-21T10:47:36.011Z,15.77
2022-09-21T10:50:21.352Z,15.84
2022-09-21T10:52:49.866Z,15.92
2022-09-21T10:55:21.701Z,16.03
2022-09-21T10:57:50.235Z,16.15
2022-09-21T11:00:29.251Z,16.30
2022-09-21T11:03:00.743Z,16.42
2022-09-21T11:05:34.459Z,16.55
2022-09-21T11:08:20.103Z,16.70
2022-09-21T11:11:21.268Z,16.92
2022-09-21T11:13:57.451Z,16.99
2022-09-21T11:17:04.650Z,17.20
2022-09-21T11:19:35.341Z,17.17
2022-09-21T11:22:14.250Z,17.34
2022-09-21T11:25:05.550Z,17.36
2022-09-21T11:27:39.980Z,17.38
2022-09-21T11:30:18.899Z,17.47
2022-09-21T11:33:29.054Z,17.51
2022-09-21T11:36:09.113Z,17.55
2022-09-21T11:39:01.402Z,17.64
2022-09-21T11:41:59.007Z,17.77
2022-09-21T11:44:47.569Z,17.80
2022-09-21T11:47:39.379Z,17.87
2022-09-21T11:53:10.906Z,17.88
2022-09-21T11:56:31.318Z,17.87
2022-09-21T11:59:42.692Z,18.00
2022-09-21T12:02:28.175Z,17.97
2022-09-21T12:05:12.937Z,18.01
2022-09-21T12:08:04.227Z,18.07
2022-09-21T12:11:12.491Z,18.09
2022-09-21T12:14:07.785Z,18.07
2022-09-21T12:17:10.703Z,18.19
2022-09-21T12:20:01.301Z,18.17
2022-09-21T12:22:33.675Z,18.20
2022-09-21T12:25:18.071Z,18.24
2022-09-21T12:28:02.216Z,18.30
2022-09-21T12:30:31.852Z,18.29
2022-09-21T12:33:30.919Z,18.30
2022-09-21T12:36:16.854Z,18.30
2022-09-21T12:39:07.418Z,18.36
2022-09-21T12:41:53.782Z,18.37
2022-09-21T12:45:02.455Z,18.45
2022-09-21T12:48:07.405Z,18.59
2022-09-21T12:50:56.353Z,18.67
2022-09-21T12:53:28.600Z,18.71
2022-09-21T12:56:22.445Z,18.83
2022-09-21T12:59:36.368Z,18.93
2022-09-21T13:02:26.346Z,18.91
2022-09-21T13:05:11.802Z,18.90
2022-09-21T13:08:36.502Z,18.75
2022-09-21T13:11:07.894Z,18.68
2022-09-21T13:13:59.286Z,18.67
2022-09-21T13:16:39.944Z,18.65
2022-09-21T13:19:12.779Z,18.76
2022-09-21T13:21:40.623Z,18.70
2022-09-21T13:24:28.965Z,18.78
2022-09-21T13:26:59.911Z,18.70
2022-09-21T13:29:32.878Z,18.73
2022-09-21T13:32:11.933Z,18.70
2022-09-21T13:34:41.332Z,18.61
2022-09-21T13:37:11.253Z,18.62
2022-09-21T13:40:02.767Z,18.70
2022-09-21T13:42:32.527Z,18.62
2022-09-21T13:45:14.197Z,18.58
2022-09-21T13:47:45.660Z,18.53
2022-09-21T13:50:25.764Z,18.60
2022-09-21T13:52:59.187Z,18.66
2022-09-21T13:55:38.960Z,18.76
2022-09-21T13:58:41.410Z,18.82
2022-09-21T14:01:45.634Z,18.76
2022-09-21T14:04:32.687Z,18.71
2022-09-21T14:07:07.645Z,18.64
2022-09-21T14:09:52.964Z,18.68
2022-09-21T14:12:25.218Z,18.70
2022-09-21T14:15:16.507Z,18.75
2022-09-21T14:17:43.908Z,18.73
2022-09-21T14:20:38.577Z,18.81
2022-09-21T14:23:16.227Z,18.81
2022-09-21T14:25:57.889Z,18.91
2022-09-21T14:28:42.290Z,19.01
2022-09-21T14:31:34.737Z,19.13
2022-09-21T14:34:04.516Z,19.14
2022-09-21T14:36:44.499Z,19.30
2022-09-21T14:39:32.006Z,19.53
2022-09-21T14:42:23.079Z,19.59
2022-09-21T14:44:51.583Z,19.74
2022-09-21T14:47:30.214Z,19.91
2022-09-21T14:50:19.775Z,20.02
2022-09-21T14:53:07.943Z,20.00
2022-09-21T14:56:10.887Z,19.89
2022-09-21T14:58:59.343Z,19.95
2022-09-21T15:01:33.220Z,19.99
2022-09-21T15:04:51.243Z,20.11
2022-09-21T15:08:13.435Z,20.19
2022-09-21T15:11:14.843Z,20.35
2022-09-21T15:14:11.306Z,20.23
2022-09-21T15:16:45.883Z,20.17
2022-09-21T15:19:18.889Z,20.04
2022-09-21T15:22:10.016Z,19.89
2022-09-21T15:24:36.982Z,19.59
2022-09-21T15:27:17.849Z,19.54
2022-09-21T15:29:49.539Z,19.40
2022-09-21T15:32:41.998Z,19.40
2022-09-21T15:35:24.787Z,19.30
2022-09-21T15:37:52.463Z,19.14
2022-09-21T15:40:26.176Z,19.08
2022-09-21T15:43:11.825Z,19.08
2022-09-21T15:45:56.251Z,18.94
2022-09-21T15:48:34.080Z,18.85
2022-09-21T15:51:23.276Z,18.78
2022-09-21T15:53:56.615Z,18.67
2022-09-21T15:56:28.646Z,18.62
2022-09-21T15:59:08.879Z,18.56
2022-09-21T16:01:47.451Z,18.49
2022-09-21T16:04:21.366Z,18.38
2022-09-21T16:07:06.707Z,18.26
2022-09-21T16:09:45.416Z,18.15
2022-09-21T16:12:34.504Z,18.07
2022-09-21T16:15:25.938Z,17.97
2022-09-21T16:18:06.599Z,17.86
2022-09-21T16:20:47.797Z,17.76
2022-09-21T16:23:23.178Z,17.70
2022-09-21T16:25:58.450Z,17.68
2022-09-21T16:28:40.034Z,17.59
2022-09-21T16:31:36.234Z,17.48
2022-09-21T16:34:37.259Z,17.38
2022-09-21T16:37:28.709Z,17.34
2022-09-21T16:39:58.587Z,17.25
2022-09-21T16:42:32.736Z,17.19
2022-09-21T16:45:00.922Z,17.13
2022-09-21T16:47:28.844Z,17.05
2022-09-21T16:50:03.029Z,17.01
2022-09-21T16:52:31.059Z,16.91
2022-09-21T16:54:58.786Z,16.86
2022-09-21T16:57:26.633Z,16.81
2022-09-21T16:59:54.583Z,16.75
2022-09-21T17:02:21.543Z,16.70
2022-09-21T17:04:49.010Z,16.63
2022-09-21T17:07:17.079Z,16.57
2022-09-21T17:09:47.507Z,16.51
2022-09-21T17:12:17.799Z,16.45
2022-09-21T17:14:47.111Z,16.39
2022-09-21T17:17:23.159Z,16.30
2022-09-21T17:19:53.516Z,16.21
2022-09-21T17:22:20.579Z,16.12
2022-09-21T17:24:52.358Z,16.02
2022-09-21T17:27:22.951Z,15.93
2022-09-21T17:29:50.579Z,15.84
2022-09-21T17:32:21.401Z,15.74
2022-09-21T17:35:41.465Z,15.62
2022-09-21T17:38:13.949Z,15.49
2022-09-21T17:40:42.776Z,15.36
2022-09-21T17:43:50.063Z,15.23
2022-09-21T17:46:40.557Z,15.08
2022-09-21T17:49:11.370Z,14.96
2022-09-21T17:51:57.063Z,14.85
2022-09-21T17:54:25.901Z,14.70
2022-09-21T17:57:20.118Z,14.58
2022-09-21T17:59:58.746Z,14.48
2022-09-21T18:02:26.209Z,14.37
2022-09-21T18:05:02.815Z,14.29
2022-09-21T18:07:30.165Z,14.21
2022-09-21T18:09:57.484Z,14.14
2022-09-21T18:12:54.599Z,14.03
2022-09-21T18:15:36.591Z,13.94
2022-09-21T18:18:16.539Z,13.86
2022-09-21T18:21:19.747Z,13.78
2022-09-21T18:24:14.709Z,13.69
2022-09-21T18:26:45.656Z,13.64
2022-09-21T18:29:46.233Z,13.57
2022-09-21T18:32:34.125Z,13.50
2022-09-21T18:35:32.160Z,13.43
2022-09-21T18:38:32.367Z,13.36
2022-09-21T18:41:13.148Z,13.29
2022-09-21T18:44:04.170Z,13.23
2022-09-21T18:46:36.791Z,13.18
2022-09-21T18:49:17.543Z,13.13
2022-09-21T18:52:30.407Z,13.06
2022-09-21T18:54:57.569Z,13.02
2022-09-21T18:57:25.227Z,12.99
2022-09-21T18:59:52.495Z,12.97
2022-09-21T19:02:20.732Z,12.93
2022-09-21T19:04:49.191Z,12.91
2022-09-21T19:07:39.057Z,12.88
2022-09-21T19:10:43.538Z,12.82
2022-09-21T19:13:51.503Z,12.79
2022-09-21T19:17:01.897Z,12.75
2022-09-21T19:19:44.917Z,12.73
2022-09-21T19:22:31.109Z,12.71
2022-09-21T19:25:36.128Z,12.68
2022-09-21T19:28:48.814Z,12.64
2022-09-21T19:31:21.042Z,12.62
2022-09-21T19:33:51.802Z,12.60
2022-09-21T19:36:19.768Z,12.57
2022-09-21T19:38:47.028Z,12.56
2022-09-21T19:41:47.266Z,12.53
2022-09-21T19:44:31.135Z,12.50
2022-09-21T19:47:30.709Z,12.48
2022-09-21T19:50:17.830Z,12.44
2022-09-21T19:52:45.963Z,12.43
2022-09-21T19:55:35.435Z,12.41
2022-09-21T19:58:22.749Z,12.39
2022-09-21T20:00:56.681Z,12.37
2022-09-21T20:03:37.471Z,12.34
2022-09-21T20:06:38.747Z,12.32
2022-09-21T20:09:24.017Z,12.30
2022-09-21T20:12:22.265Z,12.30
2022-09-21T20:15:17.589Z,12.26
2022-09-21T20:17:58.628Z,12.25
2022-09-21T20:20:26.931Z,12.25
2022-09-21T20:22:56.873Z,12.22
2022-09-21T20:25:40.526Z,12.21
2022-09-21T20:28:11.183Z,12.19
2022-09-21T20:30:39.988Z,12.19
2022-09-21T20:33:14.254Z,12.18
2022-09-21T20:35:45.176Z,12.17
2022-09-21T20:38:12.046Z,12.13
2022-09-21T20:40:40.606Z,12.12
2022-09-21T20:43:09.598Z,12.09
2022-09-21T20:45:36.751Z,12.08
2022-09-21T20:48:13.544Z,12.06
2022-09-21T20:50:48.692Z,12.04
2022-09-21T20:53:16.753Z,12.03
2022-09-21T20:55:57.651Z,12.00
2022-09-21T20:58:25.104Z,11.98
2022-09-21T21:00:56.445Z,11.96
2022-09-21T21:03:25.704Z,11.95
2022-09-21T21:05:52.629Z,11.93
2022-09-21T21:08:19.617Z,11.91
2022-09-21T21:10:46.949Z,11.90
2022-09-21T21:13:13.938Z,11.87
2022-09-21T21:15:41.109Z,11.85
2022-09-21T21:18:11.479Z,11.84
2022-09-21T21:20:39.238Z,11.83
2022-09-21T21:23:08.285Z,11.81
2022-09-21T21:25:35.826Z,11.79
2022-09-21T21:28:03.174Z,11.77
2022-09-21T21:30:31.333Z,11.76
2022-09-21T21:32:58.329Z,11.73
2022-09-21T21:35:25.837Z,11.72
2022-09-21T21:37:52.945Z,11.70
2022-09-21T21:40:20.714Z,11.67
2022-09-21T21:42:47.699Z,11.65
2022-09-21T21:45:14.639Z,11.65
2022-09-21T21:47:41.766Z,11.63
2022-09-21T21:50:10.524Z,11.61
2022-09-21T21:52:38.174Z,11.62
2022-09-21T21:55:06.302Z,11.59
2022-09-21T21:57:33.332Z,11.57
2022-09-21T22:00:00.371Z,11.55
2022-09-21T22:02:29.254Z,11.54
2022-09-21T22:04:56.393Z,11.53
2022-09-21T22:07:23.563Z,11.50
2022-09-21T22:09:50.492Z,11.48
2022-09-21T22:12:17.506Z,11.47
2022-09-21T22:14:46.243Z,11.45
2022-09-21T22:17:13.480Z,11.43
2022-09-21T22:19:40.391Z,11.41
2022-09-21T22:22:07.411Z,11.39
2022-09-21T22:24:34.313Z,11.36
2022-09-21T22:27:01.268Z,11.35
2022-09-21T22:29:28.238Z,11.33
2022-09-21T22:31:55.515Z,11.31
2022-09-21T22:34:22.565Z,11.29
2022-09-21T22:36:50.610Z,11.27
2022-09-21T22:39:17.945Z,11.25
2022-09-21T22:41:44.872Z,11.23
2022-09-21T22:44:11.959Z,11.19
2022-09-21T22:46:39.310Z,11.17
2022-09-21T22:49:07.596Z,11.14
2022-09-21T22:51:35.579Z,11.11
2022-09-21T22:54:02.487Z,11.10
2022-09-21T22:56:32.330Z,11.08
2022-09-21T22:59:02.167Z,11.06
2022-09-21T23:01:36.177Z,11.05
2022-09-21T23:04:07.736Z,11.02
2022-09-21T23:06:37.663Z,11.00
2022-09-21T23:09:12.039Z,10.97
2022-09-21T23:11:43.192Z,10.96
2022-09-21T23:14:12.414Z,10.94
2022-09-21T23:16:39.530Z,10.92
2022-09-21T23:19:15.101Z,10.90
2022-09-21T23:21:52.994Z,10.88
2022-09-21T23:24:20.428Z,10.88
2022-09-21T23:26:47.904Z,10.88
2022-09-21T23:29:15.839Z,10.87
2022-09-21T23:31:45.998Z,10.85
2022-09-21T23:34:15.089Z,10.84
2022-09-21T23:36:43.199Z,10.83
2022-09-21T23:39:15.580Z,10.82
2022-09-21T23:41:43.485Z,10.81
2022-09-21T23:44:10.415Z,10.78
2022-09-21T23:46:40.078Z,10.77
2022-09-21T23:49:07.297Z,10.76
2022-09-21T23:51:34.949Z,10.75
2022-09-21T23:54:02.249Z,10.75
2022-09-21T23:56:30.206Z,10.73
2022-09-21T23:58:57.644Z,10.72
